Time;durP1;ratioP1;P1;durP2;ratioP2;P2;SDS_P1;SDS_P2;PMS_P1;PMS_P2;Temp;Humidity;BMP_temperature;BMP_pressure;BME280_temperature;BME280_humidity;BME280_pressure;Samples;Min_cycle;Max_cycle;Signal;HPM_P1;HPM_P2
2022/05/28 00:01:13;;;;;;;0.80;0.80;;;13.60;99.90;;;;;;5014951;28;20083;-83
2022/05/28 00:03:40;;;;;;;0.77;0.77;;;13.60;99.90;;;;;;5013826;28;20030;-83
2022/05/28 00:06:11;;;;;;;1.08;0.98;;;13.70;99.90;;;;;;5014795;28;20037;-84
2022/05/28 00:08:37;;;;;;;0.70;0.70;;;13.70;99.90;;;;;;5014376;28;20030;-83
2022/05/28 00:11:14;;;;;;;0.50;0.50;;;13.70;99.90;;;;;;5015481;28;20029;-83
2022/05/28 00:13:40;;;;;;;0.95;0.85;;;13.70;99.90;;;;;;5015906;28;20026;-83
2022/05/28 00:16:06;;;;;;;0.80;0.80;;;13.60;99.90;;;;;;5014984;28;20034;-83
2022/05/28 00:18:32;;;;;;;1.58;1.45;;;13.70;99.90;;;;;;5014083;28;20080;-83
2022/05/28 00:20:58;;;;;;;1.23;1.13;;;13.70;99.90;;;;;;5013979;28;20054;-83
2022/05/28 00:23:24;;;;;;;1.05;0.90;;;13.80;99.90;;;;;;5014014;28;20459;-83
2022/05/28 00:25:50;;;;;;;1.15;1.05;;;13.70;99.90;;;;;;5014338;28;20030;-84
2022/05/28 00:28:21;;;;;;;1.02;0.93;;;13.80;99.90;;;;;;5014290;28;20124;-83
2022/05/28 00:30:47;;;;;;;0.85;0.85;;;13.80;99.90;;;;;;5014145;28;20427;-83
2022/05/28 00:33:13;;;;;;;0.90;0.70;;;13.80;99.90;;;;;;5013855;28;20030;-83
2022/05/28 00:35:39;;;;;;;0.88;0.73;;;13.80;99.90;;;;;;5014011;28;20026;-83
2022/05/28 00:38:04;;;;;;;0.70;0.70;;;13.80;99.90;;;;;;5015262;28;20022;-83
2022/05/28 00:40:30;;;;;;;1.85;0.65;;;13.70;99.90;;;;;;5014133;28;20490;-83
2022/05/28 00:43:01;;;;;;;2.08;0.60;;;13.70;99.90;;;;;;5013606;28;20396;-83
2022/05/28 00:45:29;;;;;;;1.05;0.90;;;13.80;99.90;;;;;;5014037;28;20030;-83
2022/05/28 00:47:58;;;;;;;1.25;0.80;;;13.70;99.90;;;;;;5013635;28;20029;-84
2022/05/28 00:50:25;;;;;;;1.00;1.00;;;13.70;99.90;;;;;;5013793;28;20117;-83
2022/05/28 00:52:52;;;;;;;1.90;0.60;;;13.60;99.90;;;;;;5014114;28;20034;-83
2022/05/28 00:55:19;;;;;;;1.05;0.82;;;13.70;99.90;;;;;;5013431;28;20026;-82
2022/05/28 00:57:46;;;;;;;1.05;0.95;;;13.60;99.90;;;;;;5013340;28;20061;-83
2022/05/28 01:00:19;;;;;;;1.08;0.82;;;13.50;99.90;;;;;;5013196;28;20037;-83
2022/05/28 01:03:02;;;;;;;0.70;0.70;;;13.50;99.90;;;;;;5012358;28;20551;-84
2022/05/28 01:05:43;;;;;;;0.73;0.73;;;13.50;99.90;;;;;;5013677;28;20049;-83
2022/05/28 01:08:27;;;;;;;0.80;0.80;;;13.50;99.90;;;;;;5013834;28;20018;-84
2022/05/28 01:11:20;;;;;;;1.77;0.68;;;13.50;99.90;;;;;;5013287;28;20025;-84
2022/05/28 01:13:49;;;;;;;0.75;0.75;;;13.60;99.90;;;;;;5013508;28;20473;-83
2022/05/28 01:16:30;;;;;;;2.35;0.80;;;13.50;99.90;;;;;;5013516;28;20033;-83
2022/05/28 01:19:06;;;;;;;0.90;0.90;;;13.50;99.90;;;;;;5013154;28;20096;-83
2022/05/28 01:21:51;;;;;;;0.88;0.85;;;13.50;99.90;;;;;;5012695;28;20132;-84
2022/05/28 01:24:24;;;;;;;0.80;0.80;;;13.60;99.90;;;;;;5013254;28;20551;-83
2022/05/28 01:27:07;;;;;;;0.88;0.88;;;13.60;99.90;;;;;;5014187;28;20097;-84
2022/05/28 01:29:41;;;;;;;0.77;0.77;;;13.70;99.90;;;;;;5013222;28;20033;-83
2022/05/28 01:32:09;;;;;;;2.90;1.20;;;13.60;99.90;;;;;;5012328;28;20036;-83
2022/05/28 01:34:35;;;;;;;1.00;1.00;;;13.70;99.90;;;;;;5013032;28;20547;-83
2022/05/28 01:37:04;;;;;;;1.20;1.10;;;13.60;99.90;;;;;;5013000;28;20041;-83
2022/05/28 01:39:31;;;;;;;1.73;0.95;;;13.60;99.90;;;;;;5012567;28;20435;-83
2022/05/28 01:41:57;;;;;;;2.00;1.15;;;13.50;99.90;;;;;;5013298;28;20476;-83
2022/05/28 01:44:24;;;;;;;1.70;1.00;;;13.60;99.90;;;;;;5013633;28;20040;-83
2022/05/28 01:46:51;;;;;;;0.88;0.88;;;13.60;99.90;;;;;;5012623;28;20037;-83
2022/05/28 01:49:19;;;;;;;0.90;0.90;;;13.50;99.90;;;;;;5012968;28;20388;-83
2022/05/28 01:51:52;;;;;;;3.22;1.33;;;13.60;99.90;;;;;;5012411;28;20033;-83
2022/05/28 01:54:20;;;;;;;1.85;0.98;;;13.60;99.90;;;;;;5012536;28;20061;-83
2022/05/28 01:56:49;;;;;;;2.35;1.13;;;13.50;99.90;;;;;;5012647;28;20029;-83
2022/05/28 01:59:18;;;;;;;1.75;1.00;;;13.50;99.90;;;;;;5013008;28;20060;-83
2022/05/28 02:01:44;;;;;;;2.28;1.10;;;13.40;99.90;;;;;;5012838;28;20033;-83
2022/05/28 02:04:11;;;;;;;1.02;0.93;;;13.40;99.90;;;;;;5012379;28;20105;-83
2022/05/28 02:06:38;;;;;;;1.63;1.48;;;13.40;99.90;;;;;;5012768;28;20026;-83
2022/05/28 02:09:08;;;;;;;3.40;1.50;;;13.40;99.90;;;;;;5012756;28;20025;-83
2022/05/28 02:11:47;;;;;;;1.17;1.08;;;13.40;99.90;;;;;;5013600;28;20029;-83
2022/05/28 02:14:34;;;;;;;1.50;1.13;;;13.40;99.90;;;;;;5013737;28;20057;-83
2022/05/28 02:17:23;;;;;;;1.52;1.05;;;13.40;99.90;;;;;;5012507;28;20484;-83
2022/05/28 02:20:33;;;;;;;1.00;1.00;;;13.40;99.90;;;;;;5012048;28;20022;-83
2022/05/28 02:23:15;;;;;;;2.08;1.60;;;13.40;99.90;;;;;;4990558;28;20057;-83
2022/05/28 02:25:51;;;;;;;1.98;1.20;;;13.40;99.90;;;;;;5013900;28;20026;-83
2022/05/28 02:28:17;;;;;;;1.58;1.33;;;13.40;99.80;;;;;;5012317;28;20026;-83
2022/05/28 02:30:52;;;;;;;2.70;1.42;;;13.40;99.50;;;;;;5012562;28;20034;-83
2022/05/28 02:33:19;;;;;;;2.78;1.42;;;13.50;99.10;;;;;;5012414;28;20037;-83
2022/05/28 02:35:44;;;;;;;1.50;1.25;;;13.50;99.00;;;;;;5012469;28;20541;-84
2022/05/28 02:38:13;;;;;;;1.40;1.10;;;13.50;98.90;;;;;;5012329;28;20034;-84
2022/05/28 02:40:38;;;;;;;1.52;1.42;;;13.50;98.90;;;;;;5011703;28;20025;-84
2022/05/28 02:43:04;;;;;;;1.50;1.40;;;13.50;98.50;;;;;;5013217;28;20033;-83
2022/05/28 02:45:30;;;;;;;1.90;1.40;;;13.50;98.60;;;;;;5016520;28;20022;-84
2022/05/28 02:47:56;;;;;;;2.00;1.20;;;13.50;98.40;;;;;;5016300;28;20038;-83
2022/05/28 02:50:26;;;;;;;4.43;1.45;;;13.50;98.40;;;;;;5014955;28;20018;-83
2022/05/28 02:52:53;;;;;;;1.65;1.55;;;13.50;98.50;;;;;;5015762;28;20037;-83
2022/05/28 02:55:19;;;;;;;1.90;1.58;;;13.50;98.40;;;;;;5032698;28;20029;-83
2022/05/28 02:57:45;;;;;;;1.45;1.35;;;13.40;98.50;;;;;;5015946;28;20472;-83
2022/05/28 03:00:14;;;;;;;1.58;1.48;;;13.40;98.70;;;;;;5015894;28;20036;-84
2022/05/28 03:02:41;;;;;;;2.33;1.43;;;13.40;98.90;;;;;;5016010;28;20025;-84
2022/05/28 03:05:07;;;;;;;2.05;1.40;;;13.40;98.90;;;;;;5015525;28;20305;-83
2022/05/28 03:07:32;;;;;;;1.50;1.40;;;13.40;98.80;;;;;;5015622;28;20048;-83
2022/05/28 03:09:58;;;;;;;2.75;1.40;;;13.50;98.80;;;;;;5015309;28;20539;-84
2022/05/28 03:12:24;;;;;;;1.33;1.23;;;13.50;98.60;;;;;;5015898;28;20033;-83
2022/05/28 03:14:49;;;;;;;2.78;1.73;;;13.50;98.50;;;;;;5015799;28;20026;-84
2022/05/28 03:17:15;;;;;;;2.70;1.67;;;13.50;98.30;;;;;;5015316;28;20120;-83
2022/05/28 03:19:41;;;;;;;1.60;1.50;;;13.50;98.40;;;;;;5014906;28;20053;-83
2022/05/28 03:22:06;;;;;;;1.50;1.40;;;13.50;98.20;;;;;;5015447;28;20052;-84
2022/05/28 03:24:32;;;;;;;2.38;1.63;;;13.40;97.80;;;;;;5015468;28;20476;-83
2022/05/28 03:26:59;;;;;;;2.22;1.60;;;13.40;97.90;;;;;;5015595;28;20030;-83
2022/05/28 03:29:25;;;;;;;1.52;1.42;;;13.50;97.80;;;;;;5015491;28;20022;-83
2022/05/28 03:31:51;;;;;;;1.83;1.42;;;13.40;97.80;;;;;;5015470;28;20029;-83
2022/05/28 03:34:17;;;;;;;1.48;1.38;;;13.50;97.80;;;;;;5015447;28;20060;-83
2022/05/28 03:36:43;;;;;;;2.25;1.40;;;13.40;97.40;;;;;;5015385;28;20053;-83
2022/05/28 03:39:09;;;;;;;2.55;1.60;;;13.50;97.80;;;;;;5014712;28;20034;-83
2022/05/28 03:41:35;;;;;;;2.63;1.70;;;13.40;97.60;;;;;;5015133;28;20030;-84
2022/05/28 03:44:00;;;;;;;1.67;1.58;;;13.30;97.60;;;;;;5015608;28;20387;-85
2022/05/28 03:46:29;;;;;;;1.60;1.50;;;13.30;97.70;;;;;;5015154;28;20018;-83
2022/05/28 03:49:03;;;;;;;2.38;1.50;;;13.40;97.60;;;;;;5016333;28;20096;-83
2022/05/28 03:51:30;;;;;;;2.67;1.77;;;13.40;97.50;;;;;;5015178;28;20116;-83
2022/05/28 03:53:55;;;;;;;1.83;1.70;;;13.40;97.30;;;;;;5015638;28;20131;-83
2022/05/28 03:56:22;;;;;;;2.00;1.80;;;13.30;97.50;;;;;;5014658;28;20488;-83
2022/05/28 03:58:50;;;;;;;3.72;1.75;;;13.40;97.30;;;;;;5014304;28;20032;-83
2022/05/28 04:01:16;;;;;;;2.15;1.60;;;13.40;97.30;;;;;;5015967;28;20026;-83
2022/05/28 04:03:42;;;;;;;2.00;1.80;;;13.40;97.20;;;;;;5014805;28;20033;-83
2022/05/28 04:06:09;;;;;;;1.77;1.67;;;13.30;97.30;;;;;;5013910;28;20026;-83
2022/05/28 04:08:35;;;;;;;3.45;1.70;;;13.30;97.50;;;;;;5014797;28;20026;-84
2022/05/28 04:11:01;;;;;;;1.58;1.48;;;13.40;97.30;;;;;;5016327;28;20476;-83
2022/05/28 04:13:26;;;;;;;1.67;1.58;;;13.40;97.20;;;;;;5015881;28;20037;-84
2022/05/28 04:15:52;;;;;;;4.15;1.55;;;13.60;97.30;;;;;;5014847;28;20381;-83
2022/05/28 04:18:19;;;;;;;1.75;1.65;;;13.60;97.00;;;;;;5014411;28;20022;-83
2022/05/28 04:20:44;;;;;;;1.45;1.35;;;13.80;97.00;;;;;;5013537;28;20045;-84
2022/05/28 04:23:10;;;;;;;1.88;1.77;;;13.80;96.60;;;;;;5014525;28;20026;-84
2022/05/28 04:25:36;;;;;;;2.17;1.70;;;13.90;96.40;;;;;;5014435;28;20029;-84
2022/05/28 04:28:02;;;;;;;1.88;1.55;;;13.80;96.50;;;;;;5014658;28;20414;-83
2022/05/28 04:30:28;;;;;;;2.40;1.63;;;13.90;96.50;;;;;;5013784;28;20376;-84
2022/05/28 04:32:54;;;;;;;2.30;2.00;;;13.90;96.10;;;;;;5014460;28;20120;-83
2022/05/28 04:35:20;;;;;;;1.55;1.45;;;13.80;96.40;;;;;;5015629;28;20048;-84
2022/05/28 04:37:45;;;;;;;3.60;1.95;;;13.80;96.40;;;;;;5014245;28;20029;-83
2022/05/28 04:40:12;;;;;;;2.55;1.83;;;13.90;96.30;;;;;;5014407;28;20041;-83
2022/05/28 04:42:37;;;;;;;5.07;1.85;;;14.00;96.30;;;;;;5014230;28;20030;-84
2022/05/28 04:45:04;;;;;;;1.83;1.67;;;13.90;96.00;;;;;;5014356;28;20104;-83
2022/05/28 04:47:30;;;;;;;2.45;1.90;;;13.90;96.10;;;;;;5014171;28;20022;-83
2022/05/28 04:49:55;;;;;;;1.88;1.77;;;13.90;96.30;;;;;;5015478;28;20033;-83
2022/05/28 04:52:21;;;;;;;1.98;1.88;;;13.90;96.30;;;;;;5014191;28;20018;-83
2022/05/28 04:54:47;;;;;;;2.38;1.85;;;13.80;96.10;;;;;;5014056;28;20469;-83
2022/05/28 04:57:13;;;;;;;2.90;1.90;;;13.80;96.20;;;;;;5014030;28;20118;-82
2022/05/28 04:59:39;;;;;;;5.32;2.35;;;13.70;96.50;;;;;;5014209;28;20030;-83
2022/05/28 05:02:06;;;;;;;3.08;2.10;;;13.70;96.30;;;;;;5013795;28;20133;-83
2022/05/28 05:04:32;;;;;;;2.75;1.83;;;13.80;96.90;;;;;;5013782;28;20022;-83
2022/05/28 05:06:58;;;;;;;2.85;2.05;;;13.70;96.30;;;;;;5013262;28;20064;-82
2022/05/28 05:09:24;;;;;;;2.35;1.90;;;13.80;96.30;;;;;;5013646;28;20358;-83
2022/05/28 05:11:49;;;;;;;2.28;1.92;;;13.80;96.10;;;;;;5013736;28;20092;-83
2022/05/28 05:14:15;;;;;;;3.72;1.70;;;13.90;96.30;;;;;;5013722;28;20056;-83
2022/05/28 05:16:41;;;;;;;2.55;2.20;;;14.00;96.40;;;;;;5013826;28;20084;-83
2022/05/28 05:19:07;;;;;;;2.22;2.03;;;14.10;96.00;;;;;;5013590;28;20041;-83
2022/05/28 05:21:33;;;;;;;3.60;2.05;;;14.10;96.00;;;;;;5014592;28;20053;-83
2022/05/28 05:23:58;;;;;;;1.83;1.70;;;14.20;96.10;;;;;;5013609;28;20029;-83
2022/05/28 05:26:24;;;;;;;3.65;2.05;;;14.40;96.10;;;;;;5013420;28;20026;-83
2022/05/28 05:28:50;;;;;;;2.22;2.03;;;14.50;95.70;;;;;;5013618;28;20105;-83
2022/05/28 05:31:17;;;;;;;2.78;2.00;;;14.70;95.60;;;;;;5013382;28;20030;-82
2022/05/28 05:33:42;;;;;;;2.00;1.85;;;14.80;95.20;;;;;;5013434;28;20029;-83
2022/05/28 05:36:09;;;;;;;3.15;2.08;;;14.60;95.20;;;;;;5013327;28;20028;-83
2022/05/28 05:38:35;;;;;;;2.15;1.90;;;14.60;95.30;;;;;;5013355;28;20030;-83
2022/05/28 05:41:01;;;;;;;2.13;1.90;;;14.50;95.20;;;;;;5013290;28;20030;-83
2022/05/28 05:43:26;;;;;;;2.67;1.92;;;14.50;95.30;;;;;;5013287;28;20022;-83
2022/05/28 05:45:53;;;;;;;3.33;1.80;;;14.30;95.20;;;;;;5014337;28;20029;-83
2022/05/28 05:48:19;;;;;;;4.32;2.13;;;14.40;95.80;;;;;;5012903;28;20357;-84
2022/05/28 05:50:45;;;;;;;6.10;2.17;;;14.50;95.20;;;;;;5012947;28;20018;-83
2022/05/28 05:53:11;;;;;;;2.63;1.83;;;14.60;95.00;;;;;;5013059;28;20464;-83
2022/05/28 05:55:37;;;;;;;4.32;1.92;;;14.70;95.00;;;;;;5029583;28;20133;-84
2022/05/28 05:58:04;;;;;;;3.03;1.80;;;14.70;94.90;;;;;;5013042;28;20030;-83
2022/05/28 06:00:30;;;;;;;1.90;1.73;;;14.80;95.00;;;;;;5012882;28;20021;-83
2022/05/28 06:02:56;;;;;;;3.35;2.30;;;14.80;95.00;;;;;;5012736;28;20518;-83
2022/05/28 06:05:21;;;;;;;4.22;2.30;;;14.70;94.60;;;;;;5012879;28;20469;-83
2022/05/28 06:07:47;;;;;;;2.58;1.70;;;14.70;94.60;;;;;;5012933;28;20018;-83
2022/05/28 06:10:13;;;;;;;3.20;2.15;;;14.70;94.90;;;;;;5012696;28;20022;-83
2022/05/28 06:12:39;;;;;;;2.90;2.00;;;15.00;94.70;;;;;;5012998;28;20114;-83
2022/05/28 06:15:06;;;;;;;4.10;2.10;;;15.20;94.40;;;;;;5012655;28;20089;-83
2022/05/28 06:17:34;;;;;;;3.10;2.15;;;15.40;94.10;;;;;;5012410;28;20120;-83
2022/05/28 06:20:01;;;;;;;3.05;2.40;;;15.40;94.00;;;;;;5012764;28;20556;-83
2022/05/28 06:22:27;;;;;;;2.20;2.00;;;15.30;93.60;;;;;;5012522;28;20104;-83
2022/05/28 06:24:54;;;;;;;3.33;2.47;;;15.30;93.50;;;;;;5012790;28;20030;-83
2022/05/28 06:27:20;;;;;;;2.72;2.22;;;15.30;93.90;;;;;;5012778;28;20030;-83
2022/05/28 06:29:46;;;;;;;2.78;2.40;;;15.20;93.60;;;;;;5012544;28;20030;-83
2022/05/28 06:32:11;;;;;;;2.22;2.13;;;15.20;93.50;;;;;;5013364;28;20025;-83
2022/05/28 06:34:37;;;;;;;2.30;1.77;;;15.50;94.00;;;;;;5012479;28;20503;-83
2022/05/28 06:37:07;;;;;;;2.00;1.90;;;15.70;93.50;;;;;;5012540;28;20428;-83
2022/05/28 06:39:33;;;;;;;3.20;2.10;;;15.80;93.00;;;;;;5012447;28;20026;-83
2022/05/28 06:41:59;;;;;;;3.92;2.20;;;16.00;92.70;;;;;;5012463;28;20440;-85
2022/05/28 06:44:26;;;;;;;2.58;2.38;;;16.10;92.10;;;;;;5012352;28;20105;-83
2022/05/28 06:46:52;;;;;;;2.30;2.10;;;15.90;92.00;;;;;;5012428;28;20029;-83
2022/05/28 06:49:18;;;;;;;4.57;2.60;;;16.00;92.20;;;;;;5012360;28;20026;-85
2022/05/28 06:51:44;;;;;;;3.47;2.50;;;16.00;92.20;;;;;;5012190;28;20507;-82
2022/05/28 06:54:10;;;;;;;2.20;2.05;;;15.90;92.00;;;;;;5012451;28;20034;-82
2022/05/28 06:56:35;;;;;;;4.50;2.42;;;16.00;92.10;;;;;;5013460;28;20040;-82
2022/05/28 06:59:01;;;;;;;2.67;2.42;;;16.20;92.00;;;;;;5012205;28;20033;-82
2022/05/28 07:01:27;;;;;;;2.95;2.28;;;16.30;91.50;;;;;;5012154;28;20030;-83
2022/05/28 07:03:53;;;;;;;3.92;2.60;;;16.40;91.90;;;;;;5013442;28;20495;-83
2022/05/28 07:06:18;;;;;;;2.85;2.60;;;16.50;91.00;;;;;;5012106;28;20081;-83
2022/05/28 07:08:45;;;;;;;3.60;2.63;;;16.50;90.70;;;;;;5012287;28;20018;-83
2022/05/28 07:11:11;;;;;;;5.20;2.55;;;16.50;90.70;;;;;;5012343;28;20092;-83
2022/05/28 07:13:37;;;;;;;4.03;2.63;;;16.70;90.90;;;;;;5012277;28;20472;-84
2022/05/28 07:16:05;;;;;;;2.58;2.38;;;16.60;90.20;;;;;;5013359;28;20029;-84
2022/05/28 07:18:32;;;;;;;3.45;2.60;;;16.60;90.40;;;;;;5013384;28;20022;-83
2022/05/28 07:20:57;;;;;;;2.50;2.30;;;16.80;90.10;;;;;;5013056;28;20093;-82
2022/05/28 07:23:25;;;;;;;3.92;2.88;;;16.80;90.40;;;;;;5012566;28;20058;-82
2022/05/28 07:26:07;;;;;;;7.28;5.10;;;16.80;90.10;;;;;;5012176;28;20026;-83
2022/05/28 07:28:36;;;;;;;4.20;3.00;;;16.90;90.00;;;;;;5012304;28;20021;-83
2022/05/28 07:31:06;;;;;;;3.05;2.20;;;16.90;90.00;;;;;;5015446;28;20021;-83
2022/05/28 07:33:35;;;;;;;2.60;2.38;;;17.10;89.70;;;;;;5015690;28;20022;-83
2022/05/28 07:36:02;;;;;;;5.63;2.70;;;17.30;88.50;;;;;;5015703;28;20068;-84
2022/05/28 07:38:29;;;;;;;2.67;2.47;;;17.20;87.60;;;;;;5015619;28;20460;-83
2022/05/28 07:40:56;;;;;;;3.17;2.50;;;17.30;87.90;;;;;;5016659;28;20030;-83
2022/05/28 07:43:22;;;;;;;3.42;2.30;;;17.10;87.80;;;;;;5016589;28;20102;-83
2022/05/28 07:45:48;;;;;;;4.10;2.67;;;17.10;88.20;;;;;;5015439;28;20094;-83
2022/05/28 07:48:15;;;;;;;4.35;2.47;;;16.80;88.70;;;;;;5015261;28;20030;-83
2022/05/28 07:50:42;;;;;;;4.07;2.53;;;16.80;88.20;;;;;;5015218;28;20465;-84
2022/05/28 07:53:08;;;;;;;3.35;2.65;;;16.80;88.70;;;;;;5015156;28;20439;-83
2022/05/28 07:55:35;;;;;;;3.38;2.47;;;16.90;88.80;;;;;;5015164;28;20026;-83
2022/05/28 07:58:10;;;;;;;4.00;2.53;;;16.90;88.80;;;;;;5015081;28;20030;-83
2022/05/28 08:00:45;;;;;;;2.42;2.22;;;17.00;89.50;;;;;;5015113;28;20029;-83
2022/05/28 08:03:12;;;;;;;3.95;2.58;;;17.00;88.80;;;;;;5014844;28;20036;-82
2022/05/28 08:05:40;;;;;;;3.33;2.90;;;17.10;88.60;;;;;;5016314;28;20456;-83
2022/05/28 08:08:06;;;;;;;6.93;4.00;;;17.10;87.70;;;;;;5014877;28;20022;-83
2022/05/28 08:10:32;;;;;;;4.75;4.22;;;17.30;88.50;;;;;;5014883;28;20018;-84
2022/05/28 08:13:03;;;;;;;5.20;3.50;;;17.60;88.50;;;;;;5014794;28;20112;-83
2022/05/28 08:15:29;;;;;;;4.82;3.10;;;17.70;87.50;;;;;;5014806;28;20480;-83
2022/05/28 08:17:55;;;;;;;4.38;2.47;;;17.90;87.20;;;;;;5014631;28;20032;-84
2022/05/28 08:23:08;;;;;;;3.92;2.70;;;18.20;87.60;;;;;;5014761;28;20034;-84
2022/05/28 08:23:09;;;;;;;3.42;2.40;;;18.20;85.30;;;;;;5015681;28;20046;-84
2022/05/28 08:25:35;;;;;;;21.83;10.40;;;18.20;84.60;;;;;;5014511;28;20072;-84
2022/05/28 08:28:01;;;;;;;3.10;2.80;;;18.20;84.60;;;;;;5015837;28;20088;-84
2022/05/28 08:30:27;;;;;;;6.13;3.05;;;18.60;84.50;;;;;;5014573;28;20468;-84
2022/05/28 08:32:53;;;;;;;5.93;3.65;;;18.80;82.50;;;;;;5014470;28;20044;-84
2022/05/28 08:35:20;;;;;;;3.58;2.83;;;19.00;81.70;;;;;;5014434;28;20034;-84
2022/05/28 08:37:45;;;;;;;11.57;5.15;;;19.30;81.80;;;;;;5014404;28;20064;-84
2022/05/28 08:40:13;;;;;;;6.72;3.35;;;19.40;80.10;;;;;;5015026;28;20081;-86
2022/05/28 08:42:40;;;;;;;5.70;3.42;;;19.30;79.40;;;;;;5014232;28;20022;-82
2022/05/28 08:45:07;;;;;;;181.07;102.75;;;19.50;80.10;;;;;;5013826;28;20484;-82
2022/05/28 08:47:38;;;;;;;13.23;5.85;;;19.60;79.40;;;;;;5014656;28;20026;-82
2022/05/28 08:50:04;;;;;;;;;;;19.60;77.60;;;;;;5013633;28;20026;-82
2022/05/28 08:52:35;;;;;;;5.72;3.17;;;19.20;77.90;;;;;;5011867;28;20014;-82
2022/05/28 08:55:17;;;;;;;4.13;2.85;;;19.10;78.20;;;;;;5012144;28;20029;-82
2022/05/28 08:57:57;;;;;;;9.05;2.85;;;19.10;78.50;;;;;;5011944;28;20396;-82
2022/05/28 09:00:47;;;;;;;5.60;3.63;;;19.00;78.20;;;;;;5012287;28;20124;-82
2022/05/28 09:03:18;;;;;;;3.47;2.67;;;18.80;78.30;;;;;;5012553;28;20552;-83
2022/05/28 09:05:56;;;;;;;4.68;2.70;;;18.50;78.50;;;;;;5013145;28;20029;-82
2022/05/28 09:08:29;;;;;;;4.50;2.80;;;18.50;80.40;;;;;;5013945;28;20022;-83
2022/05/28 09:10:58;;;;;;;3.53;2.60;;;18.20;78.90;;;;;;5015173;28;20030;-82
2022/05/28 09:13:53;;;;;;;5.63;2.70;;;18.20;79.70;;;;;;5013778;28;20022;-82
2022/05/28 09:16:34;;;;;;;3.60;2.63;;;18.20;79.00;;;;;;5013617;28;20113;-82
2022/05/28 09:19:15;;;;;;;5.53;3.20;;;18.40;79.40;;;;;;5013667;28;20064;-82
2022/05/28 09:21:43;;;;;;;2.90;2.40;;;18.50;77.70;;;;;;5013258;28;20523;-82
2022/05/28 09:24:42;;;;;;;4.10;2.40;;;18.40;78.30;;;;;;5013524;28;20029;-83
2022/05/28 09:27:29;;;;;;;3.22;2.50;;;18.50;77.00;;;;;;4992005;28;20037;-83
2022/05/28 09:30:16;;;;;;;4.53;2.53;;;18.80;78.50;;;;;;5013429;28;20117;-83
2022/05/28 09:32:52;;;;;;;3.20;2.85;;;18.80;77.90;;;;;;5013535;28;20076;-82
2022/05/28 09:35:53;;;;;;;3.08;2.53;;;18.70;77.30;;;;;;5013205;28;20021;-83
2022/05/28 09:38:42;;;;;;;3.60;2.25;;;18.80;78.10;;;;;;5013420;28;20022;-82
2022/05/28 09:41:52;;;;;;;3.20;2.20;;;18.80;76.90;;;;;;5006099;28;20099;-82
2022/05/28 09:44:46;;;;;;;4.28;2.40;;;18.80;75.50;;;;;;4992590;28;20026;-82
2022/05/28 09:47:16;;;;;;;5.50;2.10;;;18.80;74.60;;;;;;5014578;28;20396;-82
2022/05/28 09:49:51;;;;;;;5.38;2.65;;;19.00;74.60;;;;;;5012932;28;20424;-82
2022/05/28 09:52:26;;;;;;;3.05;2.60;;;19.20;75.50;;;;;;5012474;28;20026;-82
2022/05/28 09:54:52;;;;;;;2.55;2.30;;;19.30;73.50;;;;;;5013031;28;20121;-82
2022/05/28 09:57:28;;;;;;;3.58;2.33;;;19.40;74.70;;;;;;5012882;28;20065;-82
2022/05/28 09:59:56;;;;;;;3.75;2.00;;;19.40;72.40;;;;;;5013266;28;20060;-82
2022/05/28 10:02:41;;;;;;;2.50;2.20;;;19.30;71.60;;;;;;5012754;28;20026;-81
2022/05/28 10:05:20;;;;;;;5.72;2.10;;;19.40;71.50;;;;;;5012880;28;20029;-82
2022/05/28 10:07:47;;;;;;;3.60;2.17;;;19.50;71.40;;;;;;5012694;28;20065;-82
2022/05/28 10:10:28;;;;;;;3.55;2.17;;;19.60;70.70;;;;;;5012757;28;20026;-82
2022/05/28 10:13:11;;;;;;;4.40;2.47;;;19.70;69.30;;;;;;5012647;28;20033;-81
2022/05/28 10:15:46;;;;;;;5.15;2.30;;;19.60;69.70;;;;;;5012682;28;20464;-82
2022/05/28 10:18:21;;;;;;;3.88;2.10;;;19.60;71.10;;;;;;5012641;28;20032;-82
2022/05/28 10:21:28;;;;;;;5.57;2.00;;;19.50;69.20;;;;;;5012550;28;20068;-83
2022/05/28 10:23:57;;;;;;;3.17;2.17;;;19.40;68.80;;;;;;5007406;28;20104;-82
2022/05/28 10:26:29;;;;;;;6.80;2.20;;;19.30;69.00;;;;;;5012698;28;20026;-82
2022/05/28 10:28:59;;;;;;;3.78;2.20;;;19.50;69.60;;;;;;5012787;28;20025;-83
2022/05/28 10:31:32;;;;;;;;;;;19.70;70.10;;;;;;5012784;28;20026;-82
2022/05/28 10:33:58;;;;;;;2.38;2.13;;;19.90;68.70;;;;;;5012554;28;20330;-82
2022/05/28 10:36:28;;;;;;;2.47;2.10;;;20.20;69.70;;;;;;5012456;28;20030;-82
2022/05/28 10:39:14;;;;;;;4.22;2.33;;;20.40;68.60;;;;;;5012487;28;20037;-82
2022/05/28 10:41:42;;;;;;;3.80;2.28;;;20.40;69.20;;;;;;5012511;28;20034;-83
2022/05/28 10:44:09;;;;;;;2.20;2.00;;;20.50;66.40;;;;;;5012621;28;20117;-83
2022/05/28 10:47:02;;;;;;;2.75;2.30;;;20.40;66.10;;;;;;5012373;28;20037;-82
2022/05/28 10:49:52;;;;;;;3.63;2.33;;;20.50;66.40;;;;;;5012523;28;20033;-82
2022/05/28 10:52:48;;;;;;;2.83;1.90;;;20.80;65.80;;;;;;5012357;28;20029;-83
2022/05/28 10:55:23;;;;;;;5.65;2.00;;;21.20;65.80;;;;;;5012372;28;20111;-83
2022/05/28 10:58:07;;;;;;;3.03;2.13;;;21.20;65.20;;;;;;5013595;28;20029;-83
2022/05/28 11:00:52;;;;;;;5.00;1.88;;;20.90;63.10;;;;;;5012432;28;20034;-83
2022/05/28 11:03:39;;;;;;;4.15;1.98;;;20.60;63.90;;;;;;5012138;28;20045;-83
2022/05/28 11:06:30;;;;;;;4.07;2.00;;;20.60;65.20;;;;;;5016252;28;20045;-83
2022/05/28 11:09:19;;;;;;;2.65;2.40;;;20.60;65.00;;;;;;5015977;28;20037;-83
2022/05/28 11:12:01;;;;;;;5.47;2.45;;;20.60;65.20;;;;;;5015978;28;20057;-83
2022/05/28 11:14:46;;;;;;;2.60;2.40;;;20.70;70.80;;;;;;5017258;28;20037;-83
2022/05/28 11:17:43;;;;;;;3.20;2.33;;;21.00;69.50;;;;;;5015952;28;20026;-83
2022/05/28 11:20:23;;;;;;;4.22;2.10;;;21.10;68.20;;;;;;5015844;28;20057;-84
2022/05/28 11:23:08;;;;;;;2.78;2.08;;;21.30;67.70;;;;;;5015572;28;20488;-83
2022/05/28 11:25:46;;;;;;;2.20;1.85;;;21.50;67.50;;;;;;5015687;28;20033;-83
2022/05/28 11:28:54;;;;;;;1.98;1.88;;;21.80;66.20;;;;;;5015583;28;20057;-82
2022/05/28 11:31:41;;;;;;;2.03;1.80;;;22.00;63.60;;;;;;4997190;28;20026;-83
2022/05/28 11:34:21;;;;;;;2.08;1.83;;;22.10;62.90;;;;;;5015822;28;20058;-84
2022/05/28 11:36:51;;;;;;;;;;;22.30;65.50;;;;;;5016050;28;20026;-84
2022/05/28 11:39:32;;;;;;;2.58;1.92;;;21.90;67.00;;;;;;5015684;28;20364;-83
2022/05/28 11:42:31;;;;;;;2.20;2.00;;;22.00;67.60;;;;;;5015330;28;20030;-83
2022/05/28 11:44:59;;;;;;;3.40;2.20;;;21.70;67.60;;;;;;5015428;28;20028;-83
2022/05/28 11:47:58;;;;;;;7.05;2.20;;;21.30;68.10;;;;;;5016490;28;20037;-83
2022/05/28 11:53:51;;;;;;;17.98;13.10;;;21.10;70.40;;;;;;5017085;28;20168;-83
2022/05/28 11:56:22;;;;;;;4.55;3.85;;;21.40;70.70;;;;;;5016384;28;20152;-83
2022/05/28 11:59:29;;;;;;;6.55;2.80;;;22.00;68.70;;;;;;5015029;28;20029;-83
2022/05/28 12:01:59;;;;;;;4.38;2.28;;;22.40;66.20;;;;;;5012805;28;20061;-84
2022/05/28 12:04:25;;;;;;;3.83;2.30;;;22.20;65.30;;;;;;5015174;28;20053;-83
2022/05/28 12:07:27;;;;;;;3.25;2.35;;;22.20;66.60;;;;;;5014902;28;20053;-84
2022/05/28 12:09:53;;;;;;;4.53;2.58;;;21.70;66.30;;;;;;5007685;28;20117;-83
2022/05/28 12:12:39;;;;;;;2.97;2.10;;;21.20;67.50;;;;;;5014816;28;20060;-82
2022/05/28 12:15:25;;;;;;;3.95;2.45;;;21.20;67.50;;;;;;5014796;28;20503;-83
2022/05/28 12:18:19;;;;;;;4.70;2.28;;;20.90;68.30;;;;;;5014681;28;20029;-82
2022/05/28 12:20:56;;;;;;;5.18;2.38;;;21.00;69.70;;;;;;5014441;28;20053;-83
2022/05/28 12:23:28;;;;;;;3.47;2.40;;;21.60;70.20;;;;;;5014640;28;20022;-83
2022/05/28 12:25:54;;;;;;;5.82;3.90;;;22.90;69.00;;;;;;5015755;28;20025;-84
2022/05/28 12:28:26;;;;;;;5.72;2.78;;;24.30;65.50;;;;;;5014715;28;20026;-83
2022/05/28 12:30:54;;;;;;;6.35;3.00;;;25.60;61.80;;;;;;5014395;28;20021;-84
2022/05/28 12:33:28;;;;;;;3.13;2.05;;;26.50;58.70;;;;;;5014508;28;20030;-83
2022/05/28 12:36:09;;;;;;;3.80;2.47;;;27.40;57.90;;;;;;5014427;28;20030;-84
2022/05/28 12:38:41;;;;;;;2.75;2.20;;;27.60;54.70;;;;;;5014473;28;20030;-84
2022/05/28 12:41:41;;;;;;;2.95;2.00;;;27.70;55.10;;;;;;5015488;28;20439;-83
2022/05/28 12:44:18;;;;;;;6.55;2.47;;;27.30;54.20;;;;;;5012172;28;20152;-84
2022/05/28 12:46:56;;;;;;;2.80;2.33;;;26.00;54.40;;;;;;5014225;28;20022;-83
2022/05/28 12:49:27;;;;;;;2.33;1.90;;;25.50;55.90;;;;;;5014120;28;20026;-84
2022/05/28 12:52:07;;;;;;;2.55;1.88;;;25.90;57.10;;;;;;5014058;28;20029;-85
2022/05/28 12:54:36;;;;;;;3.60;2.35;;;26.60;54.50;;;;;;5014090;28;20030;-83
2022/05/28 12:57:27;;;;;;;14.98;4.13;;;26.60;53.60;;;;;;5015119;28;20037;-83
2022/05/28 13:00:19;;;;;;;2.72;1.92;;;26.60;54.60;;;;;;5013954;28;20121;-83
2022/05/28 13:02:48;;;;;;;2.30;2.10;;;26.60;53.60;;;;;;5011734;28;20133;-83
2022/05/28 13:05:42;;;;;;;2.28;2.03;;;26.40;54.30;;;;;;5013780;28;20018;-83
2022/05/28 13:08:25;;;;;;;6.40;2.55;;;25.90;53.90;;;;;;5013733;28;20474;-83
2022/05/28 13:11:06;;;;;;;3.65;2.30;;;25.40;54.60;;;;;;5013729;28;20033;-83
2022/05/28 13:13:42;;;;;;;3.10;2.50;;;25.10;55.50;;;;;;5013696;28;20029;-83
2022/05/28 13:16:13;;;;;;;3.40;2.28;;;24.70;55.20;;;;;;5013599;28;20025;-82